Republica Dominicana

Metar

SADR31 MDSD 021300Z
METAR

METAR MDPP 021300Z 00000KT 9999 SCT020 29/23 Q1017=
METAR MDST 021300Z 13008KT 9999 SCT018 26/23 Q1017=
METAR MDPC 021300Z 09008KT 9999 FEW020 SCT300 29/24 Q1017 NOSIG=
METAR MDBH 021300Z 18004KT 9999 FEW018CB FEW020 SCT300 29/27 Q1017
CB/SE=
METAR MDJB 021300Z 36008KT 9999 FEW018CB FEW018 28/24 Q1017 CB/S=
METAR MDSD 021300Z 03004KT 9999 FEW018CB FEW018 SCT300 29/23 Q1017
CB/S/SW=
METAR MDLR 021300Z 07005KT 9999 FEW016CB SCT018 SCT300 28/25 Q1016
CB/SE/S=
METAR MDCY 021300Z 00000KT 9999 FEW019 BKN300 28/24 Q1017=




Tamaño letra

Contraste

Otros